Time;durP1;ratioP1;P1;durP2;ratioP2;P2;SDS_P1;SDS_P2;PMS_P1;PMS_P2;Temp;Humidity;BMP_temperature;BMP_pressure;BME280_temperature;BME280_humidity;BME280_pressure;Samples;Min_cycle;Max_cycle;Signal;HPM_P1;HPM_P2
2024/01/21 00:05:13;;;;;;;32.70;15.20;;;;;;;-1.29;82.85;99867.52;437008;1253;111410;-40
2024/01/21 00:15:19;;;;;;;21.00;10.80;;;;;;;-1.28;82.81;99876.04;437011;1253;108324;-39
2024/01/21 00:35:31;;;;;;;36.00;15.70;;;;;;;-1.11;83.14;99891.35;436848;1253;111208;-39
2024/01/21 00:45:38;;;;;;;47.30;18.60;;;;;;;-1.17;83.18;99888.01;436774;1253;108242;-40
2024/01/21 00:55:46;;;;;;;40.30;16.80;;;;;;;-1.23;83.26;99893.34;436537;1251;426469;-39
2024/01/21 01:05:54;;;;;;;31.90;13.80;;;;;;;-1.27;83.30;99891.52;437101;1253;97866;-40
2024/01/21 01:26:07;;;;;;;29.80;14.30;;;;;;;-1.15;83.31;99915.02;437119;1253;107666;-39
2024/01/21 01:36:14;;;;;;;38.00;18.00;;;;;;;-1.06;83.46;99917.06;437217;1252;97960;-39
2024/01/21 01:46:20;;;;;;;27.30;13.80;;;;;;;-1.11;83.67;99930.41;437244;1253;109062;-39
2024/01/21 01:56:27;;;;;;;34.20;14.80;;;;;;;-1.18;83.68;99934.13;437340;1261;108207;-40
2024/01/21 02:06:34;;;;;;;20.00;9.40;;;;;;;-1.21;83.70;99938.30;437207;1247;107661;-38
2024/01/21 02:16:42;;;;;;;22.00;10.20;;;;;;;-1.07;83.66;99954.14;437153;1252;97508;-39
2024/01/21 02:26:47;;;;;;;30.10;13.30;;;;;;;-1.00;83.91;99967.63;437042;1252;109435;-40
2024/01/21 02:36:54;;;;;;;28.80;14.30;;;;;;;-1.07;83.78;99966.31;437080;1254;97877;-39
2024/01/21 02:47:02;;;;;;;25.90;12.70;;;;;;;-1.24;83.90;99969.84;437125;1253;96937;-39
2024/01/21 02:57:09;;;;;;;28.30;14.00;;;;;;;-1.29;84.13;99978.42;436877;1253;110552;-40
2024/01/21 03:07:16;;;;;;;18.00;10.20;;;;;;;-1.33;84.10;99981.81;435637;1254;107701;-39
2024/01/21 03:17:23;;;;;;;18.10;11.10;;;;;;;-1.22;84.20;99977.86;435494;1253;97899;-38
2024/01/21 03:27:30;;;;;;;22.80;11.30;;;;;;;-1.07;84.25;99978.94;435412;1254;110355;-41
2024/01/21 03:37:38;;;;;;;30.20;14.10;;;;;;;-1.05;84.56;99988.42;435414;1253;107131;-39
2024/01/21 03:47:45;;;;;;;33.10;14.40;;;;;;;-1.16;84.49;99996.81;435610;1255;97477;-40
2024/01/21 03:57:52;;;;;;;29.70;14.70;;;;;;;-1.20;84.54;99997.92;435375;1263;109346;-39
2024/01/21 04:18:04;;;;;;;22.30;11.30;;;;;;;-1.31;84.68;100010.42;435386;1251;109363;-41
2024/01/21 04:28:11;;;;;;;24.70;12.70;;;;;;;-1.23;84.50;100008.58;435495;1261;97877;-39
2024/01/21 04:38:18;;;;;;;30.70;14.90;;;;;;;-1.08;84.90;100016.05;436273;1248;108328;-38
2024/01/21 04:48:26;;;;;;;27.10;16.10;;;;;;;-1.00;84.98;100016.96;436138;1253;97903;-39
2024/01/21 04:58:33;;;;;;;37.60;17.50;;;;;;;-1.07;84.93;100022.20;436302;1253;96610;-39
2024/01/21 05:08:41;;;;;;;45.50;16.70;;;;;;;-1.14;84.96;100019.80;436285;1254;110605;-40
2024/01/21 05:18:46;;;;;;;39.70;20.30;;;;;;;-1.25;84.84;100017.69;436367;1254;107491;-38
2024/01/21 05:28:55;;;;;;;40.00;19.80;;;;;;;-1.32;84.79;100021.86;436263;1248;97877;-39
2024/01/21 05:39:03;;;;;;;40.00;20.40;;;;;;;-1.29;85.04;100024.42;436122;1254;97867;-39
2024/01/21 05:49:10;;;;;;;30.00;15.00;;;;;;;-1.19;85.04;100014.64;436070;1254;107551;-39
2024/01/21 05:59:19;;;;;;;34.50;16.60;;;;;;;-1.14;85.16;100020.30;436361;1249;97870;-40
2024/01/21 06:09:25;;;;;;;;;;;;;;;-1.26;85.17;100013.77;436399;1254;110901;-38
2024/01/21 06:19:32;;;;;;;42.80;20.30;;;;;;;-1.36;85.23;100007.17;436343;1252;108413;-39
2024/01/21 06:29:38;;;;;;;43.20;20.30;;;;;;;-1.38;85.40;100016.01;436251;1254;107604;-39
2024/01/21 06:39:45;;;;;;;39.60;20.10;;;;;;;-1.38;85.36;100018.90;436176;1254;97492;-39
2024/01/21 06:50:09;;;;;;;33.20;19.40;;;;;;;-1.32;85.20;100023.61;436170;1253;110758;-40
2024/01/21 07:00:17;;;;;;;27.50;16.10;;;;;;;-1.19;85.21;100031.91;436175;1254;106414;-39
2024/01/21 07:10:25;;;;;;;39.40;17.40;;;;;;;-1.03;85.41;100035.84;436287;1248;97464;-41
2024/01/21 07:20:32;;;;;;;53.80;25.70;;;;;;;-0.99;85.49;100040.41;436336;1248;107731;-39
2024/01/21 07:30:38;;;;;;;47.90;23.70;;;;;;;-1.02;85.50;100045.83;436042;1252;97199;-38
2024/01/21 07:40:47;;;;;;;55.00;24.70;;;;;;;-0.99;85.45;100051.27;436247;1252;97842;-40
2024/01/21 07:50:54;;;;;;;41.20;22.00;;;;;;;-0.85;85.46;100056.39;436194;1254;109724;-39
2024/01/21 08:01:00;;;;;;;40.30;20.00;;;;;;;-0.61;85.49;100063.69;436152;1251;108472;-38
2024/01/21 08:21:14;;;;;;;59.50;29.30;;;;;;;-0.29;85.43;100079.98;436265;1252;109183;-39
2024/01/21 08:31:20;;;;;;;63.90;30.80;;;;;;;-0.27;85.34;100078.80;436139;1252;107856;-39
2024/01/21 08:41:27;;;;;;;64.50;28.80;;;;;;;-0.07;85.47;100091.46;436212;1253;97961;-39
2024/01/21 08:51:34;;;;;;;61.80;29.90;;;;;;;0.09;85.37;100095.85;436229;1252;97890;-39
2024/01/21 09:01:41;;;;;;;36.50;21.10;;;;;;;0.30;85.13;100101.89;436234;1253;109702;-39
2024/01/21 09:11:48;;;;;;;40.00;20.60;;;;;;;0.52;84.89;100097.14;436193;1247;107154;-41
2024/01/21 09:21:55;;;;;;;54.70;26.40;;;;;;;0.72;84.98;100095.98;436204;1248;97441;-38
2024/01/21 09:32:02;;;;;;;59.20;29.00;;;;;;;0.80;84.79;100091.07;436280;1250;110430;-39
2024/01/21 09:42:10;;;;;;;56.00;27.40;;;;;;;0.84;84.24;100092.13;436243;1254;109556;-40
2024/01/21 09:52:17;;;;;;;46.70;19.30;;;;;;;1.01;83.85;100083.94;436356;1248;97948;-40
2024/01/21 10:02:25;;;;;;;43.00;21.20;;;;;;;1.26;83.77;100075.95;436405;1252;108103;-39
2024/01/21 10:12:35;;;;;;;50.10;25.10;;;;;;;1.44;83.72;100076.27;436119;1248;108322;-38
2024/01/21 10:42:58;;;;;;;47.50;22.20;;;;;;;1.84;82.39;100041.52;436435;1264;107774;-39
2024/01/21 10:53:10;;;;;;;53.40;22.40;;;;;;;2.11;82.38;100041.54;436410;1251;96571;-40
2024/01/21 11:03:33;;;;;;;48.10;24.00;;;;;;;2.27;82.22;100043.52;436304;1254;97874;-38
2024/01/21 11:23:59;;;;;;;42.80;20.40;;;;;;;2.37;81.27;100027.13;436949;1248;107128;-39
2024/01/21 11:44:16;;;;;;;47.80;25.30;;;;;;;2.96;80.79;100014.06;437195;1252;108999;-39
2024/01/21 11:54:22;;;;;;;50.60;23.40;;;;;;;3.29;80.92;99995.45;438471;1253;108158;-37
2024/01/21 12:04:29;;;;;;;40.40;20.50;;;;;;;3.17;80.38;99971.36;436803;1248;109308;-39
2024/01/21 12:14:37;;;;;;;41.60;20.70;;;;;;;3.28;80.22;99968.94;436366;1252;97979;-38
2024/01/21 12:24:44;;;;;;;39.40;20.30;;;;;;;3.30;79.71;99941.48;436356;1253;110496;-39
2024/01/21 12:44:59;;;;;;;51.00;23.70;;;;;;;3.20;79.16;99918.88;436341;1252;97467;-39
2024/01/21 12:55:07;;;;;;;36.20;17.90;;;;;;;3.18;78.72;99911.39;436421;1252;473621;-39
2024/01/21 13:05:14;;;;;;;42.30;20.60;;;;;;;3.26;78.34;99898.54;436530;1253;109483;-39
2024/01/21 13:25:24;;;;;;;59.70;25.70;;;;;;;3.23;78.00;99905.65;438001;1252;97346;-39
2024/01/21 13:35:33;;;;;;;45.10;21.00;;;;;;;3.21;77.89;99916.80;437604;1253;110243;-39
2024/01/21 13:45:41;;;;;;;51.20;20.30;;;;;;;2.96;77.85;99918.95;438417;1253;108814;-40
2024/01/21 13:55:48;;;;;;;44.80;21.70;;;;;;;2.75;77.75;99904.76;437136;1248;120623;-39
2024/01/21 14:16:00;;;;;;;52.10;24.20;;;;;;;2.59;77.85;99906.19;436722;1253;108284;-39
2024/01/21 14:26:09;;;;;;;63.60;29.20;;;;;;;2.44;77.89;99895.55;437498;1253;96656;-39
2024/01/21 14:36:16;;;;;;;80.00;36.80;;;;;;;2.27;78.04;99904.69;437527;1252;96641;-40
2024/01/21 14:46:22;;;;;;;84.30;37.90;;;;;;;2.09;78.06;99905.36;438965;1252;110058;-39
2024/01/21 14:56:30;;;;;;;77.70;37.50;;;;;;;1.91;78.05;99890.58;437781;1251;107601;-39
2024/01/21 15:06:37;;;;;;;58.10;30.30;;;;;;;1.79;78.12;99892.67;436401;1253;108117;-40
2024/01/21 15:16:44;;;;;;;65.60;35.80;;;;;;;1.71;78.27;99899.38;436567;1251;97880;-38
2024/01/21 15:26:50;;;;;;;138.90;62.50;;;;;;;1.56;78.41;99869.99;436464;1248;108467;-40
2024/01/21 15:36:56;;;;;;;114.90;49.40;;;;;;;1.32;78.43;99844.53;436309;1252;97570;-39
2024/01/21 15:47:04;;;;;;;86.50;35.50;;;;;;;1.15;78.38;99831.70;436538;1252;97858;-39
2024/01/21 15:57:11;;;;;;;80.60;36.00;;;;;;;1.14;78.39;99818.27;436223;1261;110887;-40
2024/01/21 16:17:23;;;;;;;107.10;49.10;;;;;;;0.97;78.80;99813.06;436431;1253;97867;-40
2024/01/21 16:27:30;;;;;;;69.30;35.40;;;;;;;0.94;78.94;99839.57;436576;1249;110330;-39
2024/01/21 16:37:39;;;;;;;70.50;34.20;;;;;;;0.99;79.03;99862.85;436189;1253;108011;-40
2024/01/21 16:47:47;;;;;;;97.20;43.70;;;;;;;1.00;79.23;99851.86;436371;1253;97043;-39
2024/01/21 16:57:54;;;;;;;98.90;45.30;;;;;;;0.92;79.42;99825.81;436467;1253;97892;-39
2024/01/21 17:08:01;;;;;;;71.40;35.10;;;;;;;0.86;79.42;99812.85;436390;1250;111149;-39
2024/01/21 17:18:16;;;;;;;73.30;32.10;;;;;;;0.86;79.54;99806.35;436340;1253;107741;-39
2024/01/21 17:28:22;;;;;;;76.70;32.70;;;;;;;0.89;79.58;99789.60;436272;1253;97946;-39
2024/01/21 17:38:30;;;;;;;74.30;31.00;;;;;;;0.96;79.69;99786.30;436417;1253;97903;-39
2024/01/21 17:48:37;;;;;;;54.90;27.20;;;;;;;1.05;79.34;99759.70;436402;1252;110301;-38
2024/01/21 18:08:50;;;;;;;81.10;34.70;;;;;;;0.96;78.92;99765.18;436411;1251;97889;-39
2024/01/21 18:18:57;;;;;;;51.70;24.70;;;;;;;0.92;78.93;99762.73;436514;1251;109283;-39
2024/01/21 18:29:04;;;;;;;61.50;28.20;;;;;;;0.99;78.72;99760.92;436350;1253;108334;-39
2024/01/21 18:49:38;;;;;;;60.80;29.20;;;;;;;0.93;77.69;99720.32;436360;1253;109419;-38
2024/01/21 19:09:51;;;;;;;37.50;19.50;;;;;;;0.90;76.99;99742.65;436354;1253;97976;-39
2024/01/21 19:19:59;;;;;;;44.00;18.40;;;;;;;0.86;76.60;99737.34;436740;1253;110790;-40
2024/01/21 19:30:03;;;;;;;42.30;17.30;;;;;;;0.79;75.41;99720.09;436487;1261;107586;-39
2024/01/21 19:40:12;;;;;;;31.30;14.10;;;;;;;0.72;73.36;99696.98;436431;1253;97880;-39
2024/01/21 19:50:19;;;;;;;30.70;13.40;;;;;;;0.65;71.63;99685.31;436599;1253;98189;-38
2024/01/21 20:00:25;;;;;;;32.00;14.10;;;;;;;0.56;70.03;99656.06;436379;1252;110726;-39
2024/01/21 20:10:33;;;;;;;32.10;12.70;;;;;;;0.43;69.34;99656.02;436209;1253;107685;-39
2024/01/21 20:20:40;;;;;;;26.70;13.30;;;;;;;0.34;69.16;99673.38;436349;1252;108226;-40
2024/01/21 20:30:47;;;;;;;32.60;14.20;;;;;;;0.30;68.20;99643.70;436386;1250;97911;-39
2024/01/21 20:51:02;;;;;;;22.00;11.10;;;;;;;0.18;67.60;99641.12;436330;1253;108401;-40
2024/01/21 21:01:09;;;;;;;20.40;10.20;;;;;;;0.14;67.00;99621.56;436351;1253;96642;-38
2024/01/21 21:11:20;;;;;;;17.50;9.30;;;;;;;0.11;66.51;99603.21;436505;1253;97366;-39
2024/01/21 21:21:30;;;;;;;21.00;8.30;;;;;;;0.07;66.13;99604.45;436503;1252;109825;-39
2024/01/21 21:41:41;;;;;;;14.10;6.80;;;;;;;0.09;64.83;99605.98;436372;1253;98121;-39
2024/01/21 21:51:49;;;;;;;14.70;6.50;;;;;;;0.06;64.64;99602.26;436501;1253;98095;-41
2024/01/21 22:01:57;;;;;;;13.20;5.70;;;;;;;0.04;64.14;99599.70;436357;1253;110689;-39
2024/01/21 22:22:09;;;;;;;16.80;6.90;;;;;;;0.01;63.45;99593.30;436244;1253;97563;-39
2024/01/21 22:32:16;;;;;;;14.00;6.70;;;;;;;-0.02;63.72;99599.42;436423;1261;97990;-43
2024/01/21 22:42:23;;;;;;;12.80;6.00;;;;;;;-0.03;63.56;99588.98;436471;1261;110495;-39
2024/01/21 22:52:30;;;;;;;14.70;6.90;;;;;;;0.01;62.89;99586.04;436447;1253;107378;-39
2024/01/21 23:02:38;;;;;;;13.40;5.70;;;;;;;0.05;62.74;99572.56;436357;1249;120749;-39
2024/01/21 23:12:45;;;;;;;10.70;5.30;;;;;;;0.04;62.55;99571.10;436378;1253;97864;-39
2024/01/21 23:43:04;;;;;;;13.70;6.10;;;;;;;0.06;62.74;99587.36;436557;1257;96609;-39
2024/01/21 23:53:11;;;;;;;17.10;7.30;;;;;;;-0.04;63.22;99586.65;436308;1253;97470;-39
